sensor_id;sensor_type;location;lat;lon;timestamp;pressure;altitude;pressure_sealevel;temperature;humidity
65557;BME280;52200;53.490;14.376;2024-02-16T00:00:24;101426.94;;;10.27;100.00
65557;BME280;52200;53.490;14.376;2024-02-16T00:02:50;101429.41;;;10.35;100.00
65557;BME280;52200;53.490;14.376;2024-02-16T00:05:15;101433.56;;;10.40;100.00
65557;BME280;52200;53.490;14.376;2024-02-16T00:07:41;101425.91;;;10.43;100.00
65557;BME280;52200;53.490;14.376;2024-02-16T00:10:07;101427.59;;;10.43;100.00
65557;BME280;52200;53.490;14.376;2024-02-16T00:12:34;101428.22;;;10.59;100.00
65557;BME280;52200;53.490;14.376;2024-02-16T00:15:00;101416.47;;;10.53;100.00
65557;BME280;52200;53.490;14.376;2024-02-16T00:17:26;101415.75;;;10.43;100.00
65557;BME280;52200;53.490;14.376;2024-02-16T00:19:53;101419.00;;;10.53;100.00
65557;BME280;52200;53.490;14.376;2024-02-16T00:22:19;101430.63;;;10.67;100.00
65557;BME280;52200;53.490;14.376;2024-02-16T00:24:44;101422.31;;;10.58;100.00
65557;BME280;52200;53.490;14.376;2024-02-16T00:27:10;101417.97;;;10.63;100.00
65557;BME280;52200;53.490;14.376;2024-02-16T00:29:36;101419.56;;;10.71;100.00
65557;BME280;52200;53.490;14.376;2024-02-16T00:32:04;101419.88;;;10.49;100.00
65557;BME280;52200;53.490;14.376;2024-02-16T00:34:31;101404.72;;;10.46;100.00
65557;BME280;52200;53.490;14.376;2024-02-16T00:36:57;101391.44;;;10.25;100.00
65557;BME280;52200;53.490;14.376;2024-02-16T00:39:23;101415.03;;;10.30;100.00
65557;BME280;52200;53.490;14.376;2024-02-16T00:41:48;101409.03;;;10.39;100.00
65557;BME280;52200;53.490;14.376;2024-02-16T00:44:14;101389.06;;;10.13;100.00
65557;BME280;52200;53.490;14.376;2024-02-16T00:46:39;101411.03;;;10.15;100.00
65557;BME280;52200;53.490;14.376;2024-02-16T00:49:06;101383.16;;;10.12;100.00
65557;BME280;52200;53.490;14.376;2024-02-16T00:51:32;101398.94;;;10.31;100.00
65557;BME280;52200;53.490;14.376;2024-02-16T00:53:58;101378.75;;;10.24;100.00
65557;BME280;52200;53.490;14.376;2024-02-16T00:56:23;101387.16;;;10.29;100.00
65557;BME280;52200;53.490;14.376;2024-02-16T00:58:49;101386.31;;;10.28;100.00
65557;BME280;52200;53.490;14.376;2024-02-16T01:01:14;101394.91;;;10.18;100.00
65557;BME280;52200;53.490;14.376;2024-02-16T01:03:40;101382.28;;;10.15;100.00
65557;BME280;52200;53.490;14.376;2024-02-16T01:06:06;101390.63;;;10.22;100.00
65557;BME280;52200;53.490;14.376;2024-02-16T01:08:34;101381.34;;;10.19;100.00
65557;BME280;52200;53.490;14.376;2024-02-16T01:10:59;101381.09;;;10.39;100.00
65557;BME280;52200;53.490;14.376;2024-02-16T01:13:25;101376.91;;;10.33;100.00
65557;BME280;52200;53.490;14.376;2024-02-16T01:15:50;101366.19;;;10.16;100.00
65557;BME280;52200;53.490;14.376;2024-02-16T01:18:17;101372.03;;;10.20;100.00
65557;BME280;52200;53.490;14.376;2024-02-16T01:20:42;101371.09;;;10.27;100.00
65557;BME280;52200;53.490;14.376;2024-02-16T01:23:08;101379.50;;;10.30;100.00
65557;BME280;52200;53.490;14.376;2024-02-16T01:25:33;101370.25;;;10.26;100.00
65557;BME280;52200;53.490;14.376;2024-02-16T01:27:59;101376.19;;;10.25;100.00
65557;BME280;52200;53.490;14.376;2024-02-16T01:30:24;101381.94;;;10.40;100.00
65557;BME280;52200;53.490;14.376;2024-02-16T01:32:50;101386.41;;;10.22;100.00
65557;BME280;52200;53.490;14.376;2024-02-16T01:35:16;101369.50;;;10.21;100.00
65557;BME280;52200;53.490;14.376;2024-02-16T01:37:41;101380.25;;;10.39;100.00
65557;BME280;52200;53.490;14.376;2024-02-16T01:40:09;101365.03;;;10.39;100.00
65557;BME280;52200;53.490;14.376;2024-02-16T01:42:41;101379.31;;;10.44;100.00
65557;BME280;52200;53.490;14.376;2024-02-16T01:45:08;101365.09;;;10.32;100.00
65557;BME280;52200;53.490;14.376;2024-02-16T01:47:38;101362.72;;;10.20;100.00
65557;BME280;52200;53.490;14.376;2024-02-16T01:50:04;101378.59;;;10.36;100.00
65557;BME280;52200;53.490;14.376;2024-02-16T01:52:30;101373.63;;;10.27;100.00
65557;BME280;52200;53.490;14.376;2024-02-16T01:54:59;101377.19;;;10.13;100.00
65557;BME280;52200;53.490;14.376;2024-02-16T01:57:28;101366.19;;;10.16;100.00
65557;BME280;52200;53.490;14.376;2024-02-16T01:59:53;101366.88;;;10.24;100.00
65557;BME280;52200;53.490;14.376;2024-02-16T02:02:19;101371.00;;;10.35;100.00
65557;BME280;52200;53.490;14.376;2024-02-16T02:04:44;101370.97;;;10.38;100.00
65557;BME280;52200;53.490;14.376;2024-02-16T02:07:16;101371.06;;;10.30;100.00
65557;BME280;52200;53.490;14.376;2024-02-16T02:09:42;101369.50;;;10.21;100.00
65557;BME280;52200;53.490;14.376;2024-02-16T02:12:09;101366.38;;;10.00;100.00
65557;BME280;52200;53.490;14.376;2024-02-16T02:14:35;101368.97;;;9.99;100.00
65557;BME280;52200;53.490;14.376;2024-02-16T02:17:02;101360.38;;;10.08;100.00
65557;BME280;52200;53.490;14.376;2024-02-16T02:19:27;101373.19;;;9.98;100.00
65557;BME280;52200;53.490;14.376;2024-02-16T02:21:54;101366.53;;;9.91;100.00
65557;BME280;52200;53.490;14.376;2024-02-16T02:24:19;101370.72;;;9.94;100.00
65557;BME280;52200;53.490;14.376;2024-02-16T02:26:46;101361.44;;;9.91;100.00
65557;BME280;52200;53.490;14.376;2024-02-16T02:29:11;101361.53;;;9.85;100.00
65557;BME280;52200;53.490;14.376;2024-02-16T02:31:36;101363.03;;;9.98;100.00
65557;BME280;52200;53.490;14.376;2024-02-16T02:34:02;101359.72;;;9.93;100.00
65557;BME280;52200;53.490;14.376;2024-02-16T02:36:27;101356.22;;;10.04;100.00
65557;BME280;52200;53.490;14.376;2024-02-16T02:38:53;101346.31;;;9.85;100.00
65557;BME280;52200;53.490;14.376;2024-02-16T02:41:18;101351.50;;;9.76;100.00
65557;BME280;52200;53.490;14.376;2024-02-16T02:43:45;101341.41;;;9.71;100.00
65557;BME280;52200;53.490;14.376;2024-02-16T02:46:15;101345.69;;;9.69;100.00
65557;BME280;52200;53.490;14.376;2024-02-16T02:48:42;101347.59;;;9.48;100.00
65557;BME280;52200;53.490;14.376;2024-02-16T02:51:08;101340.81;;;9.52;100.00
65557;BME280;52200;53.490;14.376;2024-02-16T02:53:35;101337.50;;;9.44;100.00
65557;BME280;52200;53.490;14.376;2024-02-16T02:56:02;101344.38;;;9.34;100.00
65557;BME280;52200;53.490;14.376;2024-02-16T02:58:28;101331.75;;;9.32;100.00
65557;BME280;52200;53.490;14.376;2024-02-16T03:00:54;101325.06;;;9.25;100.00
65557;BME280;52200;53.490;14.376;2024-02-16T03:03:20;101330.88;;;9.33;100.00
65557;BME280;52200;53.490;14.376;2024-02-16T03:05:45;101320.06;;;9.19;100.00
65557;BME280;52200;53.490;14.376;2024-02-16T03:08:11;101330.97;;;9.24;100.00
65557;BME280;52200;53.490;14.376;2024-02-16T03:10:37;101324.28;;;9.20;100.00
65557;BME280;52200;53.490;14.376;2024-02-16T03:13:03;101316.69;;;9.17;100.00
65557;BME280;52200;53.490;14.376;2024-02-16T03:15:29;101330.31;;;9.10;100.00
65557;BME280;52200;53.490;14.376;2024-02-16T03:17:55;101321.13;;;9.01;100.00
65557;BME280;52200;53.490;14.376;2024-02-16T03:20:20;101303.59;;;8.79;100.00
65557;BME280;52200;53.490;14.376;2024-02-16T03:22:46;101320.50;;;8.79;100.00
65557;BME280;52200;53.490;14.376;2024-02-16T03:25:12;101300.41;;;8.57;100.00
65557;BME280;52200;53.490;14.376;2024-02-16T03:27:38;101312.16;;;8.64;100.00
65557;BME280;52200;53.490;14.376;2024-02-16T03:30:04;101317.19;;;8.67;100.00
65557;BME280;52200;53.490;14.376;2024-02-16T03:32:31;101315.56;;;8.63;100.00
65557;BME280;52200;53.490;14.376;2024-02-16T03:34:57;101319.84;;;8.57;100.00
65557;BME280;52200;53.490;14.376;2024-02-16T03:37:24;101315.69;;;8.46;100.00
65557;BME280;52200;53.490;14.376;2024-02-16T03:39:49;101313.97;;;8.50;100.00
65557;BME280;52200;53.490;14.376;2024-02-16T03:42:16;101313.16;;;8.48;100.00
65557;BME280;52200;53.490;14.376;2024-02-16T03:44:43;101312.31;;;8.50;100.00
65557;BME280;52200;53.490;14.376;2024-02-16T03:47:08;101303.91;;;8.37;100.00
65557;BME280;52200;53.490;14.376;2024-02-16T03:49:34;101306.47;;;8.39;100.00
65557;BME280;52200;53.490;14.376;2024-02-16T03:51:59;101301.38;;;8.37;100.00
65557;BME280;52200;53.490;14.376;2024-02-16T03:54:25;101298.09;;;8.28;100.00
65557;BME280;52200;53.490;14.376;2024-02-16T03:56:54;101303.97;;;8.31;100.00
65557;BME280;52200;53.490;14.376;2024-02-16T03:59:19;101310.81;;;8.20;100.00
65557;BME280;52200;53.490;14.376;2024-02-16T04:01:45;101300.75;;;8.11;100.00
65557;BME280;52200;53.490;14.376;2024-02-16T04:04:11;101302.44;;;8.10;100.00
65557;BME280;52200;53.490;14.376;2024-02-16T04:06:38;101299.91;;;8.13;100.00
65557;BME280;52200;53.490;14.376;2024-02-16T04:09:03;101298.19;;;8.15;100.00
65557;BME280;52200;53.490;14.376;2024-02-16T04:11:31;101291.50;;;8.08;100.00
65557;BME280;52200;53.490;14.376;2024-02-16T04:13:57;101296.50;;;8.16;100.00
65557;BME280;52200;53.490;14.376;2024-02-16T04:16:23;101289.78;;;8.12;100.00
65557;BME280;52200;53.490;14.376;2024-02-16T04:18:50;101296.56;;;8.10;100.00
65557;BME280;52200;53.490;14.376;2024-02-16T04:21:16;101291.53;;;8.03;100.00
65557;BME280;52200;53.490;14.376;2024-02-16T04:23:42;101294.09;;;8.02;100.00
65557;BME280;52200;53.490;14.376;2024-02-16T04:26:07;101286.47;;;8.00;100.00
65557;BME280;52200;53.490;14.376;2024-02-16T04:28:33;101293.22;;;8.04;100.00
65557;BME280;52200;53.490;14.376;2024-02-16T04:30:59;101280.56;;;8.04;100.00
65557;BME280;52200;53.490;14.376;2024-02-16T04:33:24;101288.09;;;8.12;100.00
65557;BME280;52200;53.490;14.376;2024-02-16T04:35:50;101292.25;;;8.21;100.00
65557;BME280;52200;53.490;14.376;2024-02-16T04:38:17;101288.06;;;8.18;100.00
65557;BME280;52200;53.490;14.376;2024-02-16T04:40:42;101282.97;;;8.20;100.00
65557;BME280;52200;53.490;14.376;2024-02-16T04:43:08;101283.00;;;8.17;100.00
65557;BME280;52200;53.490;14.376;2024-02-16T04:45:33;101280.44;;;8.20;100.00
65557;BME280;52200;53.490;14.376;2024-02-16T04:48:06;101276.22;;;8.22;100.00
65557;BME280;52200;53.490;14.376;2024-02-16T04:50:33;101272.84;;;8.20;100.00
65557;BME280;52200;53.490;14.376;2024-02-16T04:52:59;101276.16;;;8.25;100.00
65557;BME280;52200;53.490;14.376;2024-02-16T04:55:27;101268.66;;;8.17;100.00
65557;BME280;52200;53.490;14.376;2024-02-16T04:57:53;101272.91;;;8.14;100.00
65557;BME280;52200;53.490;14.376;2024-02-16T05:00:19;101265.34;;;8.07;100.00
65557;BME280;52200;53.490;14.376;2024-02-16T05:02:46;101270.38;;;8.14;100.00
65557;BME280;52200;53.490;14.376;2024-02-16T05:05:11;101259.47;;;8.07;100.00
65557;BME280;52200;53.490;14.376;2024-02-16T05:07:37;101258.59;;;8.10;100.00
65557;BME280;52200;53.490;14.376;2024-02-16T05:10:03;101261.13;;;8.06;100.00
65557;BME280;52200;53.490;14.376;2024-02-16T05:12:28;101254.44;;;7.99;100.00
65557;BME280;52200;53.490;14.376;2024-02-16T05:14:54;101252.69;;;8.07;100.00
65557;BME280;52200;53.490;14.376;2024-02-16T05:17:20;101250.19;;;8.04;100.00
65557;BME280;52200;53.490;14.376;2024-02-16T05:19:47;101248.53;;;7.99;100.00
65557;BME280;52200;53.490;14.376;2024-02-16T05:22:13;101243.47;;;8.03;100.00
65557;BME280;52200;53.490;14.376;2024-02-16T05:24:39;101250.16;;;8.11;100.00
65557;BME280;52200;53.490;14.376;2024-02-16T05:27:05;101251.06;;;8.00;100.00
65557;BME280;52200;53.490;14.376;2024-02-16T05:29:31;101246.03;;;7.99;100.00
65557;BME280;52200;53.490;14.376;2024-02-16T05:31:56;101251.09;;;7.94;100.00
65557;BME280;52200;53.490;14.376;2024-02-16T05:34:22;101249.47;;;7.90;100.00
65557;BME280;52200;53.490;14.376;2024-02-16T05:36:47;101249.50;;;7.81;100.00
65557;BME280;52200;53.490;14.376;2024-02-16T05:39:15;101246.97;;;7.84;100.00
65557;BME280;52200;53.490;14.376;2024-02-16T05:41:52;101263.78;;;7.89;100.00
65557;BME280;52200;53.490;14.376;2024-02-16T05:44:18;101260.47;;;7.83;100.00
65557;BME280;52200;53.490;14.376;2024-02-16T05:46:45;101256.25;;;7.80;100.00
65557;BME280;52200;53.490;14.376;2024-02-16T05:49:11;101260.50;;;7.80;100.00
65557;BME280;52200;53.490;14.376;2024-02-16T05:51:37;101254.56;;;7.81;100.00
65557;BME280;52200;53.490;14.376;2024-02-16T05:54:04;101252.88;;;7.83;100.00
65557;BME280;52200;53.490;14.376;2024-02-16T05:56:30;101254.63;;;7.76;100.00
65557;BME280;52200;53.490;14.376;2024-02-16T05:59:01;101247.06;;;7.71;100.00
65557;BME280;52200;53.490;14.376;2024-02-16T06:01:27;101243.69;;;7.69;100.00
65557;BME280;52200;53.490;14.376;2024-02-16T06:03:53;101243.69;;;7.72;100.00
65557;BME280;52200;53.490;14.376;2024-02-16T06:06:18;101244.53;;;7.70;100.00
65557;BME280;52200;53.490;14.376;2024-02-16T06:08:43;101251.22;;;7.77;100.00
65557;BME280;52200;53.490;14.376;2024-02-16T06:11:09;101248.75;;;7.69;100.00
65557;BME280;52200;53.490;14.376;2024-02-16T06:13:35;101254.69;;;7.64;100.00
65557;BME280;52200;53.490;14.376;2024-02-16T06:16:00;101254.72;;;7.59;100.00
65557;BME280;52200;53.490;14.376;2024-02-16T06:18:26;101243.66;;;7.71;100.00
65557;BME280;52200;53.490;14.376;2024-02-16T06:20:55;101255.47;;;7.70;100.00
65557;BME280;52200;53.490;14.376;2024-02-16T06:23:20;101247.13;;;7.59;100.00
65557;BME280;52200;53.490;14.376;2024-02-16T06:25:46;101245.47;;;7.52;100.00
65557;BME280;52200;53.490;14.376;2024-02-16T06:28:11;101248.88;;;7.46;100.00
65557;BME280;52200;53.490;14.376;2024-02-16T06:30:37;101246.34;;;7.46;100.00
65557;BME280;52200;53.490;14.376;2024-02-16T06:33:02;101255.63;;;7.49;100.00
65557;BME280;52200;53.490;14.376;2024-02-16T06:35:29;101250.66;;;7.32;100.00
65557;BME280;52200;53.490;14.376;2024-02-16T06:37:54;101251.41;;;7.46;100.00
65557;BME280;52200;53.490;14.376;2024-02-16T06:40:20;101248.88;;;7.48;100.00
65557;BME280;52200;53.490;14.376;2024-02-16T06:42:46;101243.88;;;7.35;100.00
65557;BME280;52200;53.490;14.376;2024-02-16T06:45:11;101242.22;;;7.34;100.00
65557;BME280;52200;53.490;14.376;2024-02-16T06:47:37;101243.03;;;7.36;100.00
65557;BME280;52200;53.490;14.376;2024-02-16T06:50:03;101242.22;;;7.33;100.00
65557;BME280;52200;53.490;14.376;2024-02-16T06:52:28;101243.91;;;7.29;100.00
65557;BME280;52200;53.490;14.376;2024-02-16T06:54:54;101237.16;;;7.31;100.00
65557;BME280;52200;53.490;14.376;2024-02-16T06:57:20;101237.16;;;7.34;100.00
65557;BME280;52200;53.490;14.376;2024-02-16T06:59:45;101237.16;;;7.34;100.00
65557;BME280;52200;53.490;14.376;2024-02-16T07:02:11;101234.59;;;7.39;100.00
65557;BME280;52200;53.490;14.376;2024-02-16T07:04:39;101226.19;;;7.37;100.00
65557;BME280;52200;53.490;14.376;2024-02-16T07:07:05;101228.69;;;7.41;100.00
65557;BME280;52200;53.490;14.376;2024-02-16T07:09:31;101221.06;;;7.49;100.00
65557;BME280;52200;53.490;14.376;2024-02-16T07:11:57;101217.66;;;7.53;100.00
65557;BME280;52200;53.490;14.376;2024-02-16T07:14:24;101210.03;;;7.61;100.00
65557;BME280;52200;53.490;14.376;2024-02-16T07:16:49;101215.00;;;7.73;100.00
65557;BME280;52200;53.490;14.376;2024-02-16T07:19:15;101221.69;;;7.84;100.00
65557;BME280;52200;53.490;14.376;2024-02-16T07:21:40;101226.66;;;7.96;100.00
65557;BME280;52200;53.490;14.376;2024-02-16T07:24:06;101224.84;;;8.11;100.00
65557;BME280;52200;53.490;14.376;2024-02-16T07:26:31;101223.13;;;8.16;100.00
65557;BME280;52200;53.490;14.376;2024-02-16T07:28:57;101213.72;;;8.27;100.00
65557;BME280;52200;53.490;14.376;2024-02-16T07:31:22;101215.38;;;8.33;100.00
65557;BME280;52200;53.490;14.376;2024-02-16T07:33:48;101215.25;;;8.44;100.00
65557;BME280;52200;53.490;14.376;2024-02-16T07:36:14;101215.19;;;8.54;100.00
65557;BME280;52200;53.490;14.376;2024-02-16T07:38:39;101210.81;;;8.67;100.00
65557;BME280;52200;53.490;14.376;2024-02-16T07:41:05;101205.66;;;8.77;100.00
65557;BME280;52200;53.490;14.376;2024-02-16T07:43:31;101211.41;;;8.90;100.00
65557;BME280;52200;53.490;14.376;2024-02-16T07:45:57;101213.75;;;9.07;100.00
65557;BME280;52200;53.490;14.376;2024-02-16T07:48:22;101212.72;;;9.20;100.00
65557;BME280;52200;53.490;14.376;2024-02-16T07:50:48;101216.78;;;9.33;100.00
65557;BME280;52200;53.490;14.376;2024-02-16T07:53:15;101220.00;;;9.45;100.00
65557;BME280;52200;53.490;14.376;2024-02-16T07:55:41;101211.28;;;9.64;100.00
65557;BME280;52200;53.490;14.376;2024-02-16T07:58:07;101218.13;;;9.59;100.00
65557;BME280;52200;53.490;14.376;2024-02-16T08:00:34;101206.91;;;9.74;100.00
65557;BME280;52200;53.490;14.376;2024-02-16T08:02:59;101205.84;;;9.86;100.00
65557;BME280;52200;53.490;14.376;2024-02-16T08:05:25;101208.13;;;10.03;100.00
65557;BME280;52200;53.490;14.376;2024-02-16T08:07:52;101203.31;;;9.88;100.00
65557;BME280;52200;53.490;14.376;2024-02-16T08:10:21;101208.50;;;9.81;100.00
65557;BME280;52200;53.490;14.376;2024-02-16T08:12:47;101208.56;;;9.77;100.00
65557;BME280;52200;53.490;14.376;2024-02-16T08:15:12;101214.34;;;9.85;100.00
65557;BME280;52200;53.490;14.376;2024-02-16T08:17:40;101222.72;;;9.90;100.00
65557;BME280;52200;53.490;14.376;2024-02-16T08:20:06;101222.56;;;9.99;100.00
65557;BME280;52200;53.490;14.376;2024-02-16T08:22:32;101215.47;;;10.20;100.00
65557;BME280;52200;53.490;14.376;2024-02-16T08:24:58;101215.19;;;10.36;99.70
65557;BME280;52200;53.490;14.376;2024-02-16T08:27:24;101215.19;;;10.36;98.75
65557;BME280;52200;53.490;14.376;2024-02-16T08:29:50;101208.56;;;10.28;99.49
65557;BME280;52200;53.490;14.376;2024-02-16T08:32:17;101214.97;;;10.48;99.39
65557;BME280;52200;53.490;14.376;2024-02-16T08:34:43;101207.16;;;10.59;98.08
65557;BME280;52200;53.490;14.376;2024-02-16T08:37:09;101194.72;;;10.45;97.82
65557;BME280;52200;53.490;14.376;2024-02-16T08:39:37;101192.25;;;10.42;97.80
65557;BME280;52200;53.490;14.376;2024-02-16T08:42:03;101192.03;;;10.53;97.95
65557;BME280;52200;53.490;14.376;2024-02-16T08:44:29;101189.78;;;10.36;98.09
65557;BME280;52200;53.490;14.376;2024-02-16T08:46:54;101184.69;;;10.39;98.45
65557;BME280;52200;53.490;14.376;2024-02-16T08:49:20;101184.81;;;10.29;97.61
65557;BME280;52200;53.490;14.376;2024-02-16T08:51:45;101183.00;;;10.38;97.91
65557;BME280;52200;53.490;14.376;2024-02-16T08:54:11;101182.06;;;10.42;97.80
65557;BME280;52200;53.490;14.376;2024-02-16T08:56:36;101182.91;;;10.44;97.74
65557;BME280;52200;53.490;14.376;2024-02-16T08:59:04;101182.03;;;10.45;97.44
65557;BME280;52200;53.490;14.376;2024-02-16T09:01:34;101175.34;;;10.39;97.92
65557;BME280;52200;53.490;14.376;2024-02-16T09:03:59;101168.41;;;10.49;98.09
65557;BME280;52200;53.490;14.376;2024-02-16T09:06:26;101168.13;;;10.64;97.11
65557;BME280;52200;53.490;14.376;2024-02-16T09:08:51;101170.66;;;10.64;96.61
65557;BME280;52200;53.490;14.376;2024-02-16T09:11:16;101186.03;;;10.58;96.79
65557;BME280;52200;53.490;14.376;2024-02-16T09:13:42;101192.66;;;10.66;96.04
65557;BME280;52200;53.490;14.376;2024-02-16T09:16:08;101181.69;;;10.63;96.62
65557;BME280;52200;53.490;14.376;2024-02-16T09:18:33;101182.53;;;10.62;96.83
65557;BME280;52200;53.490;14.376;2024-02-16T09:20:59;101175.84;;;10.58;96.42
65557;BME280;52200;53.490;14.376;2024-02-16T09:23:25;101175.91;;;10.57;96.80
65557;BME280;52200;53.490;14.376;2024-02-16T09:25:51;101171.84;;;10.46;96.88
65557;BME280;52200;53.490;14.376;2024-02-16T09:28:17;101175.03;;;10.56;97.64
65557;BME280;52200;53.490;14.376;2024-02-16T09:30:45;101170.50;;;10.72;96.49
65557;BME280;52200;53.490;14.376;2024-02-16T09:33:11;101181.63;;;10.65;96.07
65557;BME280;52200;53.490;14.376;2024-02-16T09:35:36;101175.91;;;10.97;96.12
65557;BME280;52200;53.490;14.376;2024-02-16T09:38:02;101183.31;;;11.08;95.53
65557;BME280;52200;53.490;14.376;2024-02-16T09:40:28;101177.84;;;11.25;95.33
65557;BME280;52200;53.490;14.376;2024-02-16T09:42:53;101176.66;;;11.40;94.00
65557;BME280;52200;53.490;14.376;2024-02-16T09:45:19;101185.78;;;11.85;93.45
65557;BME280;52200;53.490;14.376;2024-02-16T09:47:45;101178.25;;;11.82;92.96
65557;BME280;52200;53.490;14.376;2024-02-16T09:50:15;101176.31;;;12.25;91.43
65557;BME280;52200;53.490;14.376;2024-02-16T09:52:41;101184.22;;;12.47;90.04
65557;BME280;52200;53.490;14.376;2024-02-16T09:55:10;101176.41;;;12.53;89.10
65557;BME280;52200;53.490;14.376;2024-02-16T09:57:37;101180.97;;;12.42;88.75
65557;BME280;52200;53.490;14.376;2024-02-16T10:00:03;101179.66;;;12.27;88.94
65557;BME280;52200;53.490;14.376;2024-02-16T10:02:41;101173.03;;;12.21;89.54
65557;BME280;52200;53.490;14.376;2024-02-16T10:05:15;101181.19;;;12.34;89.87
65557;BME280;52200;53.490;14.376;2024-02-16T10:07:41;101174.50;;;12.30;89.18
65557;BME280;52200;53.490;14.376;2024-02-16T10:10:19;101180.38;;;12.34;89.00
65557;BME280;52200;53.490;14.376;2024-02-16T10:12:46;101182.44;;;12.19;88.80
65557;BME280;52200;53.490;14.376;2024-02-16T10:15:11;101186.56;;;12.23;89.22
65557;BME280;52200;53.490;14.376;2024-02-16T10:17:37;101174.69;;;12.22;89.37
65557;BME280;52200;53.490;14.376;2024-02-16T10:20:02;101173.78;;;12.25;88.94
65557;BME280;52200;53.490;14.376;2024-02-16T10:22:31;101171.44;;;12.17;88.93
65557;BME280;52200;53.490;14.376;2024-02-16T10:25:09;101171.31;;;12.22;89.01
65557;BME280;52200;53.490;14.376;2024-02-16T10:27:37;101175.91;;;12.09;89.72
65557;BME280;52200;53.490;14.376;2024-02-16T10:30:06;101170.56;;;12.18;88.92
65557;BME280;52200;53.490;14.376;2024-02-16T10:32:36;101163.25;;;12.37;87.43
65557;BME280;52200;53.490;14.376;2024-02-16T10:35:06;101161.69;;;12.00;87.41
65557;BME280;52200;53.490;14.376;2024-02-16T10:37:34;101158.97;;;12.08;88.07
65557;BME280;52200;53.490;14.376;2024-02-16T10:40:01;101156.63;;;12.32;87.76
65557;BME280;52200;53.490;14.376;2024-02-16T10:42:30;101143.50;;;12.14;86.75
65557;BME280;52200;53.490;14.376;2024-02-16T10:44:57;101152.19;;;12.38;86.40
65557;BME280;52200;53.490;14.376;2024-02-16T10:47:23;101154.94;;;12.62;85.58
65557;BME280;52200;53.490;14.376;2024-02-16T10:49:48;101153.28;;;12.61;84.97
65557;BME280;52200;53.490;14.376;2024-02-16T10:52:15;101141.81;;;12.74;84.98
65557;BME280;52200;53.490;14.376;2024-02-16T10:54:42;101134.44;;;12.95;84.88
65557;BME280;52200;53.490;14.376;2024-02-16T10:57:08;101141.13;;;12.69;84.17
65557;BME280;52200;53.490;14.376;2024-02-16T10:59:42;101139.78;;;12.87;83.95
65557;BME280;52200;53.490;14.376;2024-02-16T11:02:11;101127.16;;;12.83;83.62
65557;BME280;52200;53.490;14.376;2024-02-16T11:04:38;101129.47;;;12.90;83.22
65557;BME280;52200;53.490;14.376;2024-02-16T11:07:11;101125.78;;;13.01;83.58
65557;BME280;52200;53.490;14.376;2024-02-16T11:09:39;101129.19;;;12.71;84.43
65557;BME280;52200;53.490;14.376;2024-02-16T11:12:06;101111.56;;;12.64;84.42
65557;BME280;52200;53.490;14.376;2024-02-16T11:14:41;101117.44;;;12.66;84.29
65557;BME280;52200;53.490;14.376;2024-02-16T11:17:15;101123.63;;;12.57;84.54
65557;BME280;52200;53.490;14.376;2024-02-16T11:19:45;101132.38;;;12.48;84.05
65557;BME280;52200;53.490;14.376;2024-02-16T11:22:11;101112.69;;;12.53;84.97
65557;BME280;52200;53.490;14.376;2024-02-16T11:24:44;101111.75;;;12.57;84.29
65557;BME280;52200;53.490;14.376;2024-02-16T11:27:11;101121.94;;;12.57;84.54
65557;BME280;52200;53.490;14.376;2024-02-16T11:29:38;101126.41;;;12.79;83.94
65557;BME280;52200;53.490;14.376;2024-02-16T11:32:05;101131.25;;;12.88;83.46
65557;BME280;52200;53.490;14.376;2024-02-16T11:34:32;101125.66;;;13.04;83.22
65557;BME280;52200;53.490;14.376;2024-02-16T11:36:59;101113.59;;;13.09;82.44
65557;BME280;52200;53.490;14.376;2024-02-16T11:39:26;101111.59;;;12.92;82.36
65557;BME280;52200;53.490;14.376;2024-02-16T11:44:33;101113.28;;;12.92;82.41
65557;BME280;52200;53.490;14.376;2024-02-16T11:47:00;101118.88;;;13.03;82.61
65557;BME280;52200;53.490;14.376;2024-02-16T11:49:27;101113.47;;;13.14;82.09
65557;BME280;52200;53.490;14.376;2024-02-16T11:51:53;101110.28;;;13.07;81.89
65557;BME280;52200;53.490;14.376;2024-02-16T11:54:18;101107.56;;;13.40;81.81
65557;BME280;52200;53.490;14.376;2024-02-16T11:57:04;101094.28;;;13.81;80.91
65557;BME280;52200;53.490;14.376;2024-02-16T11:59:29;101081.72;;;13.75;80.88
65557;BME280;52200;53.490;14.376;2024-02-16T12:01:58;101084.38;;;13.97;81.25
65557;BME280;52200;53.490;14.376;2024-02-16T12:04:28;101088.19;;;14.10;80.28
65557;BME280;52200;53.490;14.376;2024-02-16T12:06:58;101080.19;;;13.70;80.23
65557;BME280;52200;53.490;14.376;2024-02-16T12:09:25;101084.00;;;13.32;80.72
65557;BME280;52200;53.490;14.376;2024-02-16T12:11:52;101076.25;;;13.08;80.57
65557;BME280;52200;53.490;14.376;2024-02-16T12:14:19;101069.16;;;13.16;81.34
65557;BME280;52200;53.490;14.376;2024-02-16T12:16:50;101070.56;;;13.27;81.71
65557;BME280;52200;53.490;14.376;2024-02-16T12:19:18;101073.63;;;13.38;80.80
65557;BME280;52200;53.490;14.376;2024-02-16T12:21:43;101072.41;;;13.21;80.43
65557;BME280;52200;53.490;14.376;2024-02-16T12:24:09;101072.00;;;13.34;80.28
65557;BME280;52200;53.490;14.376;2024-02-16T12:26:36;101081.28;;;13.36;79.77
65557;BME280;52200;53.490;14.376;2024-02-16T12:29:01;101074.06;;;13.22;79.70
65557;BME280;52200;53.490;14.376;2024-02-16T12:31:27;101081.03;;;13.17;79.39
65557;BME280;52200;53.490;14.376;2024-02-16T12:33:52;101079.16;;;13.22;79.53
65557;BME280;52200;53.490;14.376;2024-02-16T12:36:18;101080.88;;;13.50;79.50